createdAt,value
2023-05-21T00:01:49.004Z,11.10
2023-05-21T00:04:15.856Z,10.63
2023-05-21T00:06:42.349Z,10.65
2023-05-21T00:09:09.007Z,10.40
2023-05-21T00:11:36.287Z,11.20
2023-05-21T00:14:02.908Z,10.05
2023-05-21T00:16:29.581Z,10.65
2023-05-21T00:18:56.143Z,10.70
2023-05-21T00:21:22.746Z,11.02
2023-05-21T00:23:50.054Z,12.15
2023-05-21T00:26:16.564Z,11.20
2023-05-21T00:28:43.410Z,11.18
2023-05-21T00:31:10.066Z,10.88
2023-05-21T00:33:36.587Z,10.80
2023-05-21T00:36:03.274Z,10.35
2023-05-21T00:38:29.945Z,10.60
2023-05-21T00:40:56.560Z,10.23
2023-05-21T00:43:25.149Z,11.70
2023-05-21T00:45:51.970Z,11.77
2023-05-21T00:48:18.667Z,11.50
2023-05-21T00:50:45.154Z,10.55
2023-05-21T00:53:12.487Z,11.65
2023-05-21T00:55:40.112Z,12.10
2023-05-21T00:58:07.824Z,12.20
2023-05-21T01:00:35.746Z,11.48
2023-05-21T01:03:02.840Z,12.18
2023-05-21T01:05:29.647Z,12.35
2023-05-21T01:07:57.455Z,12.00
2023-05-21T01:10:27.681Z,12.52
2023-05-21T01:12:55.952Z,12.05
2023-05-21T01:15:23.335Z,13.50
2023-05-21T01:17:51.285Z,12.50
2023-05-21T01:20:20.004Z,12.90
2023-05-21T01:22:56.466Z,12.70
2023-05-21T01:25:23.667Z,13.20
2023-05-21T01:27:51.023Z,13.05
2023-05-21T01:30:19.482Z,12.55
2023-05-21T01:33:03.553Z,12.77
2023-05-21T01:35:35.263Z,13.15
2023-05-21T01:38:22.201Z,12.70
2023-05-21T01:41:04.153Z,12.50
2023-05-21T01:43:37.378Z,13.18
2023-05-21T01:46:05.635Z,14.43
2023-05-21T01:48:32.598Z,14.38
2023-05-21T01:51:05.201Z,14.07
2023-05-21T01:53:32.614Z,14.10
2023-05-21T01:55:59.211Z,14.32
2023-05-21T01:58:25.928Z,14.02
2023-05-21T02:00:54.231Z,14.23
2023-05-21T02:03:21.617Z,14.00
2023-05-21T02:05:48.253Z,13.77
2023-05-21T02:08:14.782Z,13.73
2023-05-21T02:10:42.020Z,13.32
2023-05-21T02:13:10.095Z,12.70
2023-05-21T02:15:37.091Z,13.55
2023-05-21T02:18:04.157Z,12.95
2023-05-21T02:20:38.147Z,12.18
2023-05-21T02:23:04.645Z,12.25
2023-05-21T02:25:31.770Z,12.60
2023-05-21T02:27:58.263Z,12.57
2023-05-21T02:30:24.867Z,13.25
2023-05-21T02:32:51.789Z,13.43
2023-05-21T02:35:18.393Z,13.18
2023-05-21T02:37:45.088Z,13.73
2023-05-21T02:40:12.134Z,12.30
2023-05-21T02:42:40.495Z,12.85
2023-05-21T02:45:11.841Z,14.05
2023-05-21T02:47:38.894Z,13.52
2023-05-21T02:50:07.438Z,14.32
2023-05-21T02:52:34.278Z,14.45
2023-05-21T02:55:00.839Z,13.43
2023-05-21T02:57:27.514Z,13.77
2023-05-21T02:59:54.205Z,14.40
2023-05-21T03:02:20.827Z,15.00
2023-05-21T03:04:47.419Z,14.48
2023-05-21T03:07:15.699Z,14.63
2023-05-21T03:09:42.369Z,14.38
2023-05-21T03:12:09.246Z,14.23
2023-05-21T03:14:35.887Z,14.00
2023-05-21T03:17:03.057Z,13.10
2023-05-21T03:19:29.728Z,14.25
2023-05-21T03:21:56.454Z,12.63
2023-05-21T03:24:23.298Z,12.70
2023-05-21T03:26:49.915Z,13.20
2023-05-21T03:29:16.433Z,13.95
2023-05-21T03:31:43.210Z,13.68
2023-05-21T03:34:09.729Z,13.50
2023-05-21T03:36:36.435Z,14.40
2023-05-21T03:39:03.362Z,12.90
2023-05-21T03:41:30.090Z,14.82
2023-05-21T03:43:56.805Z,14.40
2023-05-21T03:46:23.426Z,14.63
2023-05-21T03:48:50.042Z,14.38
2023-05-21T03:51:16.661Z,14.18
2023-05-21T03:53:43.428Z,14.35
2023-05-21T03:56:10.255Z,14.93
2023-05-21T03:58:36.964Z,13.90
2023-05-21T04:01:03.691Z,14.23
2023-05-21T04:03:31.323Z,14.77
2023-05-21T04:05:57.886Z,15.13
2023-05-21T04:08:24.389Z,14.68
2023-05-21T04:10:51.355Z,15.02
2023-05-21T04:13:21.316Z,15.07
2023-05-21T04:15:47.942Z,14.48
2023-05-21T04:18:14.809Z,14.93
2023-05-21T04:20:41.559Z,14.52
2023-05-21T04:23:08.172Z,14.75
2023-05-21T04:25:35.253Z,14.50
2023-05-21T04:28:01.876Z,13.90
2023-05-21T04:30:28.462Z,12.45
2023-05-21T04:32:55.048Z,13.48
2023-05-21T04:35:21.814Z,13.63
2023-05-21T04:37:48.499Z,14.18
2023-05-21T04:40:15.314Z,14.07
2023-05-21T04:42:41.861Z,14.25
2023-05-21T04:45:09.089Z,15.15
2023-05-21T04:47:35.970Z,14.48
2023-05-21T04:50:02.956Z,15.23
2023-05-21T04:52:29.356Z,14.23
2023-05-21T04:54:56.109Z,13.93
2023-05-21T04:57:22.794Z,14.20
2023-05-21T04:59:49.499Z,14.25
2023-05-21T05:02:16.348Z,13.68
2023-05-21T05:04:43.039Z,13.20
2023-05-21T05:07:09.941Z,13.15
2023-05-21T05:09:36.640Z,14.52
2023-05-21T05:12:03.360Z,13.73
2023-05-21T05:14:30.290Z,13.93
2023-05-21T05:16:57.027Z,14.07
2023-05-21T05:19:23.596Z,13.20
2023-05-21T05:21:50.195Z,13.48
2023-05-21T05:24:16.986Z,14.35
2023-05-21T05:26:43.708Z,13.73
2023-05-21T05:29:10.236Z,14.68
2023-05-21T05:31:37.133Z,14.57
2023-05-21T05:34:03.664Z,14.10
2023-05-21T05:36:30.179Z,14.50
2023-05-21T05:38:57.011Z,14.18
2023-05-21T05:41:23.804Z,14.57
2023-05-21T05:43:50.385Z,14.57
2023-05-21T05:46:17.239Z,15.27
2023-05-21T05:48:43.917Z,14.40
2023-05-21T05:51:10.520Z,13.57
2023-05-21T05:53:37.241Z,13.35
2023-05-21T05:56:04.566Z,14.45
2023-05-21T05:58:31.094Z,14.35
2023-05-21T06:00:57.657Z,13.50
2023-05-21T06:03:24.383Z,13.65
2023-05-21T06:05:51.337Z,13.15
2023-05-21T06:08:17.769Z,11.95
2023-05-21T06:10:44.510Z,13.35
2023-05-21T06:13:11.106Z,12.25
2023-05-21T06:15:37.872Z,13.55
2023-05-21T06:18:04.679Z,14.55
2023-05-21T06:20:31.358Z,12.82
2023-05-21T06:22:57.977Z,12.30
2023-05-21T06:25:24.676Z,12.40
2023-05-21T06:27:51.908Z,12.55
2023-05-21T06:30:18.592Z,13.68
2023-05-21T06:32:45.304Z,13.45
2023-05-21T06:35:11.880Z,12.93
2023-05-21T06:37:38.427Z,12.43
2023-05-21T06:40:05.475Z,12.60
2023-05-21T06:42:32.043Z,12.38
2023-05-21T06:44:59.420Z,12.40
2023-05-21T06:47:26.234Z,11.82
2023-05-21T06:49:52.879Z,14.35
2023-05-21T06:52:19.469Z,13.38
2023-05-21T06:54:46.984Z,13.63
2023-05-21T06:57:15.181Z,12.45
2023-05-21T06:59:41.739Z,12.63
2023-05-21T07:02:08.400Z,13.57
2023-05-21T07:04:34.993Z,13.40
2023-05-21T07:07:02.786Z,13.25
2023-05-21T07:09:29.435Z,11.93
2023-05-21T07:11:56.050Z,11.73
2023-05-21T07:14:23.758Z,12.38
2023-05-21T07:16:50.402Z,12.07
2023-05-21T07:19:17.134Z,13.18
2023-05-21T07:21:43.990Z,12.73
2023-05-21T07:24:10.857Z,12.35
2023-05-21T07:26:37.489Z,11.05
2023-05-21T07:29:04.046Z,12.90
2023-05-21T07:31:30.487Z,12.32
2023-05-21T07:33:57.085Z,12.60
2023-05-21T07:36:23.957Z,11.70
2023-05-21T07:38:50.600Z,12.15
2023-05-21T07:41:18.530Z,11.73
2023-05-21T07:43:45.509Z,11.30
2023-05-21T07:46:12.296Z,10.73
2023-05-21T07:48:38.958Z,10.55
2023-05-21T07:51:06.035Z,10.45
2023-05-21T07:53:32.805Z,10.23
2023-05-21T07:56:00.580Z,9.00
2023-05-21T07:58:27.185Z,9.13
2023-05-21T08:00:53.922Z,8.95
2023-05-21T08:03:20.787Z,9.18
2023-05-21T08:05:47.922Z,9.02
2023-05-21T08:08:20.678Z,10.20
2023-05-21T08:10:47.517Z,9.07
2023-05-21T08:13:16.037Z,10.23
2023-05-21T08:15:42.845Z,9.95
2023-05-21T08:18:09.414Z,9.98
2023-05-21T08:20:36.269Z,9.43
2023-05-21T08:23:03.091Z,9.23
2023-05-21T08:25:30.311Z,9.38
2023-05-21T08:27:58.764Z,10.15
2023-05-21T08:30:25.207Z,10.05
2023-05-21T08:32:51.867Z,9.10
2023-05-21T08:35:18.767Z,9.85
2023-05-21T08:37:45.219Z,10.13
2023-05-21T08:40:12.640Z,10.10
2023-05-21T08:42:48.270Z,9.80
2023-05-21T08:45:20.534Z,9.40
2023-05-21T08:47:48.342Z,8.85
2023-05-21T08:50:17.212Z,8.93
2023-05-21T08:52:43.707Z,9.02
2023-05-21T08:55:14.099Z,8.63
2023-05-21T08:57:44.643Z,9.65
2023-05-21T09:00:11.773Z,8.85
2023-05-21T09:02:39.051Z,8.95
2023-05-21T09:05:06.471Z,8.45
2023-05-21T09:07:40.048Z,8.82
2023-05-21T09:10:14.167Z,8.70
2023-05-21T09:12:40.714Z,8.85
2023-05-21T09:15:07.914Z,8.40
2023-05-21T09:17:36.075Z,8.93
2023-05-21T09:20:09.011Z,7.95
2023-05-21T09:22:37.322Z,8.70
2023-05-21T09:25:06.954Z,8.13
2023-05-21T09:27:34.697Z,8.15
2023-05-21T09:30:09.595Z,7.78
2023-05-21T09:32:36.263Z,7.78
2023-05-21T09:35:11.295Z,7.53
2023-05-21T09:37:39.816Z,7.28
2023-05-21T09:40:20.780Z,7.72
2023-05-21T09:42:49.846Z,7.70
2023-05-21T09:45:26.227Z,7.63
2023-05-21T09:47:54.698Z,8.05
2023-05-21T09:50:23.976Z,6.65
2023-05-21T09:52:51.468Z,6.97
2023-05-21T09:55:18.431Z,7.25
2023-05-21T09:57:50.587Z,7.03
2023-05-21T10:00:18.807Z,7.28
2023-05-21T10:02:47.108Z,7.05
2023-05-21T10:05:20.629Z,7.25
2023-05-21T10:07:52.467Z,7.25
2023-05-21T10:10:22.741Z,6.93
2023-05-21T10:15:24.565Z,6.88
2023-05-21T10:17:52.574Z,6.70
2023-05-21T10:20:20.202Z,6.90
2023-05-21T10:22:48.900Z,7.15
2023-05-21T10:25:16.213Z,6.78
2023-05-21T10:27:43.351Z,7.15
2023-05-21T10:30:10.605Z,7.35
2023-05-21T10:32:40.650Z,6.43
2023-05-21T10:35:08.925Z,6.15
2023-05-21T10:37:36.351Z,6.40
2023-05-21T10:40:03.052Z,7.40
2023-05-21T10:42:29.510Z,7.30
2023-05-21T10:45:11.866Z,7.07
2023-05-21T10:48:02.625Z,7.10
2023-05-21T10:50:54.182Z,6.50
2023-05-21T10:53:59.801Z,6.80
2023-05-21T10:56:38.947Z,6.03
2023-05-21T10:59:36.592Z,6.72
2023-05-21T11:02:05.912Z,6.00
2023-05-21T11:04:32.875Z,6.40
2023-05-21T11:07:01.513Z,6.72
2023-05-21T11:09:31.493Z,6.47
2023-05-21T11:11:59.829Z,6.78
2023-05-21T11:14:42.239Z,6.38
2023-05-21T11:17:39.352Z,6.93
2023-05-21T11:20:14.006Z,7.40
2023-05-21T11:22:40.559Z,7.03
2023-05-21T11:25:07.885Z,6.93
2023-05-21T11:27:37.050Z,6.13
2023-05-21T11:30:25.129Z,6.65
2023-05-21T11:33:10.428Z,6.13
2023-05-21T11:35:46.130Z,6.90
2023-05-21T11:38:13.189Z,6.03
2023-05-21T11:40:51.040Z,6.47
2023-05-21T11:43:18.724Z,6.35
2023-05-21T11:45:45.364Z,7.30
2023-05-21T11:48:13.855Z,6.85
2023-05-21T11:50:41.091Z,6.13
2023-05-21T11:53:10.362Z,5.95
2023-05-21T11:55:40.381Z,5.93
2023-05-21T11:58:07.370Z,6.13
2023-05-21T12:00:39.087Z,6.40
2023-05-21T12:03:06.392Z,6.80
2023-05-21T12:05:50.366Z,7.25
2023-05-21T12:08:23.899Z,6.93
2023-05-21T12:10:58.586Z,7.13
2023-05-21T12:13:25.869Z,6.85
2023-05-21T12:15:54.765Z,6.90
2023-05-21T12:18:22.109Z,6.95
2023-05-21T12:20:52.364Z,6.07
2023-05-21T12:25:47.299Z,6.63
2023-05-21T12:28:14.321Z,5.45
2023-05-21T12:30:40.966Z,6.78
2023-05-21T12:33:13.784Z,6.70
2023-05-21T12:35:40.249Z,6.40
2023-05-21T12:38:07.489Z,5.88
2023-05-21T12:40:38.387Z,6.57
2023-05-21T12:43:07.059Z,6.32
2023-05-21T12:45:34.497Z,5.90
2023-05-21T12:48:02.176Z,6.45
2023-05-21T12:50:28.918Z,6.20
2023-05-21T12:52:55.926Z,6.30
2023-05-21T12:55:24.264Z,6.13
2023-05-21T12:57:50.948Z,6.40
2023-05-21T13:00:23.958Z,5.40
2023-05-21T13:02:52.805Z,5.70
2023-05-21T13:05:19.644Z,5.00
2023-05-21T13:07:46.835Z,5.60
2023-05-21T13:10:15.303Z,5.60
2023-05-21T13:12:44.206Z,6.43
2023-05-21T13:15:11.561Z,5.83
2023-05-21T13:17:38.223Z,5.78
2023-05-21T13:20:14.731Z,6.20
2023-05-21T13:22:46.814Z,5.60
2023-05-21T13:25:33.964Z,6.65
2023-05-21T13:28:04.697Z,5.72
2023-05-21T13:30:31.520Z,6.15
2023-05-21T13:32:58.374Z,6.03
2023-05-21T13:35:28.716Z,6.18
2023-05-21T13:37:55.405Z,6.03
2023-05-21T13:40:22.330Z,5.90
2023-05-21T13:42:50.375Z,5.93
2023-05-21T13:45:20.605Z,5.65
2023-05-21T13:50:17.524Z,5.13
2023-05-21T13:52:47.394Z,7.13
2023-05-21T13:55:14.356Z,7.45
2023-05-21T13:57:41.799Z,5.80
2023-05-21T14:00:09.262Z,5.72
2023-05-21T14:02:36.300Z,4.80
2023-05-21T14:05:03.672Z,5.32
2023-05-21T14:07:30.456Z,6.35
2023-05-21T14:10:00.193Z,7.78
2023-05-21T14:12:26.790Z,5.90
2023-05-21T14:14:53.421Z,5.93
2023-05-21T14:17:20.219Z,5.60
2023-05-21T14:19:46.811Z,5.60
2023-05-21T14:22:13.479Z,6.13
2023-05-21T14:24:40.558Z,5.90
2023-05-21T14:27:07.851Z,5.60
2023-05-21T14:29:34.431Z,5.75
2023-05-21T14:32:00.971Z,5.57
2023-05-21T14:34:27.680Z,5.72
2023-05-21T14:36:54.481Z,6.07
2023-05-21T14:39:21.018Z,5.97
2023-05-21T14:41:48.001Z,6.20
2023-05-21T14:44:14.860Z,5.25
2023-05-21T14:46:41.971Z,5.95
2023-05-21T14:49:08.818Z,5.70
2023-05-21T14:51:35.564Z,5.60
2023-05-21T14:54:02.286Z,5.80
2023-05-21T14:56:29.341Z,5.47
2023-05-21T14:58:56.379Z,5.88
2023-05-21T15:01:23.528Z,5.88
2023-05-21T15:03:50.616Z,5.43
2023-05-21T15:06:17.664Z,5.55
2023-05-21T15:08:44.408Z,4.90
2023-05-21T15:11:10.942Z,5.63
2023-05-21T15:13:38.760Z,4.88
2023-05-21T15:16:05.800Z,5.43
2023-05-21T15:18:32.367Z,4.90
2023-05-21T15:20:59.081Z,4.35
2023-05-21T15:23:25.625Z,5.13
2023-05-21T15:25:52.359Z,4.78
2023-05-21T15:28:19.322Z,4.53
2023-05-21T15:30:46.167Z,5.18
2023-05-21T15:33:12.935Z,5.80
2023-05-21T15:35:41.092Z,4.65
2023-05-21T15:38:08.195Z,4.70
2023-05-21T15:40:34.880Z,5.07
2023-05-21T15:43:01.659Z,5.15
2023-05-21T15:45:28.127Z,5.20
2023-05-21T15:47:54.942Z,4.82
2023-05-21T15:50:21.654Z,6.43
2023-05-21T15:52:50.389Z,7.63
2023-05-21T15:55:20.550Z,12.68
2023-05-21T15:57:46.985Z,14.95
2023-05-21T16:00:13.910Z,6.70
2023-05-21T16:02:40.867Z,4.95
2023-05-21T16:05:09.293Z,5.03
2023-05-21T16:07:37.957Z,5.30
2023-05-21T16:10:06.267Z,5.40
2023-05-21T16:12:33.471Z,5.10
2023-05-21T16:15:00.467Z,4.93
2023-05-21T16:17:27.754Z,4.95
2023-05-21T16:19:54.411Z,4.90
2023-05-21T16:22:29.448Z,4.95
2023-05-21T16:24:55.993Z,5.30
2023-05-21T16:27:22.813Z,6.30
2023-05-21T16:30:03.040Z,5.45
2023-05-21T16:32:29.700Z,6.35
2023-05-21T16:34:56.353Z,6.50
2023-05-21T16:37:23.014Z,6.20
2023-05-21T16:39:49.594Z,6.28
2023-05-21T16:42:16.148Z,6.22
2023-05-21T16:44:43.003Z,5.80
2023-05-21T16:47:09.554Z,6.18
2023-05-21T16:49:37.862Z,6.82
2023-05-21T16:52:05.002Z,6.65
2023-05-21T16:54:31.632Z,6.50
2023-05-21T16:57:01.401Z,6.93
2023-05-21T16:59:53.535Z,6.40
2023-05-21T17:02:22.208Z,7.00
2023-05-21T17:04:49.192Z,6.10
2023-05-21T17:07:16.434Z,6.72
2023-05-21T17:09:43.257Z,6.88
2023-05-21T17:12:41.988Z,6.60
2023-05-21T17:15:33.027Z,7.10
2023-05-21T17:18:01.529Z,6.72
2023-05-21T17:20:28.169Z,7.45
2023-05-21T17:22:55.054Z,6.85
2023-05-21T17:25:29.811Z,7.07
2023-05-21T17:27:56.441Z,6.43
2023-05-21T17:30:22.946Z,6.60
2023-05-21T17:32:50.572Z,6.88
2023-05-21T17:35:17.822Z,7.20
2023-05-21T17:37:45.387Z,7.40
2023-05-21T17:40:12.348Z,7.70
2023-05-21T17:42:39.494Z,6.93
2023-05-21T17:45:06.600Z,7.40
2023-05-21T17:47:33.557Z,7.15
2023-05-21T17:50:00.720Z,7.05
2023-05-21T17:52:29.523Z,8.00
2023-05-21T17:54:56.458Z,8.25
2023-05-21T17:57:23.002Z,6.78
2023-05-21T17:59:49.657Z,6.80
2023-05-21T18:02:16.263Z,7.13
2023-05-21T18:04:44.330Z,7.35
2023-05-21T18:07:11.196Z,7.55
2023-05-21T18:09:38.153Z,7.95
2023-05-21T18:12:05.197Z,7.50
2023-05-21T18:14:33.060Z,7.85
2023-05-21T18:17:00.099Z,7.18
2023-05-21T18:19:26.893Z,7.93
2023-05-21T18:21:53.648Z,7.63
2023-05-21T18:24:20.272Z,7.60
2023-05-21T18:26:46.958Z,7.75
2023-05-21T18:29:13.768Z,6.90
2023-05-21T18:31:41.259Z,6.90
2023-05-21T18:34:07.908Z,7.43
2023-05-21T18:36:34.510Z,8.20
2023-05-21T18:39:01.366Z,7.80
2023-05-21T18:41:28.238Z,8.18
2023-05-21T18:43:54.802Z,8.15
2023-05-21T18:46:22.014Z,8.18
2023-05-21T18:48:48.669Z,7.80
2023-05-21T18:51:15.348Z,8.48
2023-05-21T18:53:41.983Z,8.65
2023-05-21T18:56:08.762Z,8.98
2023-05-21T18:58:35.514Z,9.25
2023-05-21T19:01:02.190Z,9.48
2023-05-21T19:03:29.215Z,8.57
2023-05-21T19:05:55.812Z,8.70
2023-05-21T19:08:22.436Z,8.10
2023-05-21T19:10:49.051Z,8.85
2023-05-21T19:13:15.647Z,8.63
2023-05-21T19:15:43.037Z,8.15
2023-05-21T19:18:10.703Z,8.73
2023-05-21T19:20:37.506Z,8.55
2023-05-21T19:23:06.111Z,7.90
2023-05-21T19:25:32.931Z,8.57
2023-05-21T19:28:00.247Z,8.10
2023-05-21T19:30:26.910Z,8.90
2023-05-21T19:32:53.934Z,10.50
2023-05-21T19:35:21.748Z,9.77
2023-05-21T19:37:48.803Z,9.20
2023-05-21T19:40:15.755Z,9.65
2023-05-21T19:42:42.711Z,8.73
2023-05-21T19:45:09.812Z,9.60
2023-05-21T19:47:36.582Z,9.13
2023-05-21T19:50:04.360Z,9.13
2023-05-21T19:52:31.361Z,10.57
2023-05-21T19:54:58.266Z,9.95
2023-05-21T19:57:25.014Z,9.25
2023-05-21T19:59:51.702Z,9.82
2023-05-21T20:02:18.567Z,8.80
2023-05-21T20:04:45.097Z,10.70
2023-05-21T20:07:11.924Z,13.85
2023-05-21T20:09:39.170Z,12.40
2023-05-21T20:12:06.321Z,13.05
2023-05-21T20:14:33.076Z,12.93
2023-05-21T20:17:03.002Z,13.23
2023-05-21T20:19:29.680Z,13.00
2023-05-21T20:21:56.668Z,12.77
2023-05-21T20:24:23.277Z,12.38
2023-05-21T20:26:49.882Z,12.50
2023-05-21T20:29:16.700Z,11.23
2023-05-21T20:31:44.192Z,12.43
2023-05-21T20:34:10.745Z,12.68
2023-05-21T20:36:38.929Z,11.63
2023-05-21T20:39:05.420Z,11.80
2023-05-21T20:41:32.027Z,11.02
2023-05-21T20:43:58.434Z,10.60
2023-05-21T20:46:25.226Z,11.30
2023-05-21T20:48:51.851Z,12.23
2023-05-21T20:51:18.673Z,11.38
2023-05-21T20:53:45.176Z,11.52
2023-05-21T20:56:11.674Z,12.45
2023-05-21T20:58:38.297Z,12.93
2023-05-21T21:01:04.937Z,11.23
2023-05-21T21:03:31.546Z,11.27
2023-05-21T21:05:58.462Z,10.98
2023-05-21T21:08:24.948Z,10.82
2023-05-21T21:10:51.472Z,11.48
2023-05-21T21:13:17.883Z,11.48
2023-05-21T21:15:44.486Z,11.02
2023-05-21T21:18:11.587Z,11.32
2023-05-21T21:20:38.570Z,12.20
2023-05-21T21:23:05.503Z,11.73
2023-05-21T21:25:32.233Z,11.05
2023-05-21T21:27:58.834Z,12.40
2023-05-21T21:30:25.345Z,12.30
2023-05-21T21:32:51.833Z,12.27
2023-05-21T21:35:18.847Z,12.75
2023-05-21T21:37:45.603Z,11.65
2023-05-21T21:40:12.811Z,14.02
2023-05-21T21:42:39.595Z,13.07
2023-05-21T21:45:07.091Z,13.23
2023-05-21T21:47:33.719Z,12.20
2023-05-21T21:50:00.255Z,12.93
2023-05-21T21:52:27.604Z,12.77
2023-05-21T21:54:55.338Z,13.65
2023-05-21T21:57:22.272Z,12.85
2023-05-21T21:59:48.864Z,12.88
2023-05-21T22:02:15.499Z,13.02
2023-05-21T22:04:42.253Z,13.30
2023-05-21T22:07:08.798Z,13.15
2023-05-21T22:09:35.545Z,13.10
2023-05-21T22:12:02.325Z,12.25
2023-05-21T22:14:28.942Z,12.48
2023-05-21T22:16:55.783Z,13.63
2023-05-21T22:19:22.632Z,13.63
2023-05-21T22:21:49.374Z,13.10
2023-05-21T22:24:30.786Z,12.82
2023-05-21T22:26:58.329Z,12.40
2023-05-21T22:29:24.829Z,14.07
2023-05-21T22:31:51.322Z,12.93
2023-05-21T22:34:17.956Z,14.68
2023-05-21T22:36:44.618Z,14.00
2023-05-21T22:39:11.367Z,13.10
2023-05-21T22:41:38.063Z,13.23
2023-05-21T22:44:04.694Z,13.63
2023-05-21T22:46:31.321Z,13.98
2023-05-21T22:48:57.803Z,13.65
2023-05-21T22:51:24.333Z,13.50
2023-05-21T22:53:50.927Z,13.52
2023-05-21T22:56:17.506Z,12.82
2023-05-21T22:58:44.003Z,13.40
2023-05-21T23:01:10.737Z,13.60
2023-05-21T23:03:37.254Z,13.27
2023-05-21T23:06:03.972Z,13.70
2023-05-21T23:08:30.465Z,15.15
2023-05-21T23:10:56.893Z,15.10
2023-05-21T23:13:23.341Z,15.25
2023-05-21T23:15:50.006Z,14.57
2023-05-21T23:18:16.511Z,14.27
2023-05-21T23:20:43.445Z,14.05
2023-05-21T23:23:10.263Z,14.57
2023-05-21T23:25:38.263Z,14.82
2023-05-21T23:28:05.048Z,13.75
2023-05-21T23:30:31.676Z,14.05
2023-05-21T23:32:58.488Z,14.80
2023-05-21T23:35:25.095Z,14.18
2023-05-21T23:37:51.611Z,14.50
2023-05-21T23:40:18.124Z,14.77
2023-05-21T23:42:44.716Z,13.00
2023-05-21T23:45:11.838Z,13.95
2023-05-21T23:47:38.450Z,13.98
2023-05-21T23:50:05.911Z,15.30
2023-05-21T23:52:32.599Z,14.63
2023-05-21T23:54:59.479Z,14.82
2023-05-21T23:57:25.987Z,14.73
2023-05-21T23:59:52.993Z,14.60
